Terminal Aerodrome Forecast
Issued by NWS Albany, NY

Home | Current Version | Previous Version | Text Only | Print | Product List | Glossary On
Versions: 1 2 3 4 5 6 7 8 9 10 11 12 13 14 15 16 17 18
000
FTUS41 KALY 010800 AAA
TAFPOU
TAF AMD
KPOU 010813Z 0108/0206 08005KT P6SM SCT015 OVC050
     FM011200 01006KT P6SM VCSH SCT015 OVC025
     FM020000 VRB03KT P6SM VCSH OVC025=

USA.gov is the U.S. government's official web portal to all federal, state and local government web resources and services.